Pagrindinis puslapis
METAR-TAF:

METAR-TAF

Oro uostai :

Passo Fundo, Pietų Rio Grandė, Brazilija

platuma: 28-15S, ilguma: 052-24W, Aukštis: 684 m

Dabartinis oras

Ataskaita buvo paskelbta 1 valandą ir 7 minutes, ne 20:00 UTC
Vėjas 14 kt iš Vakarų/Pietvakarių
Temperatūra 26°C
Drėgmė 65%
Slėgis 1011 hPa
Matomumas 10 km arba daugiau
Išsisklaidę debesys ne aukštis 1500 ft
Mažai debesys ne aukštis 4000 ft, aukštai iškilę kamuoliniai debesys.
Išsisklaidę debesys ne aukštis 4500 ft

METAR: SBPF 122000Z 25014KT 9999 SCT015 FEW040TCU SCT045 26/19 Q1011

Laikas: 18:07 (21:07 UTC)


TAF: trūkstamas

Orai ataskaitas ir orų prognozės (METAR, TAF).

turimą stotys yra geltonos ir raudonos taškus žemėlapyje.

Perkelti pele per norėdami pamatyti stoties vardą.

Tada spustelėkite, norėdami matyti oro stebėjimo ir prognozės.

Norėdami pakeisti žemėlapį: spustelėkite ant žalios mygtukų su juodo kryžiaus žemyn,; žalią mygtuką su brūkšneliu, jei norite nutolinti; arba žalių rodyklių gretimoms žemėlapius.


METAR-TAF: